sensor_id;sensor_type;location;lat;lon;timestamp;P1;durP1;ratioP1;P2;durP2;ratioP2
67597;SDS011;62026;39.230;9.122;2023-04-25T00:01:46;6.78;;;1.30;;
67597;SDS011;62026;39.230;9.122;2023-04-25T00:04:13;4.75;;;1.17;;
67597;SDS011;62026;39.230;9.122;2023-04-25T00:06:39;4.57;;;1.10;;
67597;SDS011;62026;39.230;9.122;2023-04-25T00:09:05;11.02;;;1.60;;
67597;SDS011;62026;39.230;9.122;2023-04-25T00:11:36;6.22;;;1.10;;
67597;SDS011;62026;39.230;9.122;2023-04-25T00:14:03;14.02;;;1.13;;
67597;SDS011;62026;39.230;9.122;2023-04-25T00:16:29;5.72;;;1.50;;
67597;SDS011;62026;39.230;9.122;2023-04-25T00:18:59;8.50;;;1.00;;
67597;SDS011;62026;39.230;9.122;2023-04-25T00:21:26;7.38;;;1.10;;
67597;SDS011;62026;39.230;9.122;2023-04-25T00:23:53;3.17;;;0.85;;
67597;SDS011;62026;39.230;9.122;2023-04-25T00:26:20;8.50;;;1.30;;
67597;SDS011;62026;39.230;9.122;2023-04-25T00:28:47;8.25;;;1.00;;
67597;SDS011;62026;39.230;9.122;2023-04-25T00:31:14;7.75;;;1.20;;
67597;SDS011;62026;39.230;9.122;2023-04-25T00:33:40;10.20;;;1.20;;
67597;SDS011;62026;39.230;9.122;2023-04-25T00:36:06;7.50;;;1.10;;
67597;SDS011;62026;39.230;9.122;2023-04-25T00:38:33;7.10;;;1.10;;
67597;SDS011;62026;39.230;9.122;2023-04-25T00:40:59;8.45;;;1.10;;
67597;SDS011;62026;39.230;9.122;2023-04-25T00:43:26;10.13;;;1.73;;
67597;SDS011;62026;39.230;9.122;2023-04-25T00:45:53;10.57;;;1.95;;
67597;SDS011;62026;39.230;9.122;2023-04-25T00:48:21;5.07;;;1.10;;
67597;SDS011;62026;39.230;9.122;2023-04-25T00:50:55;7.80;;;1.05;;
67597;SDS011;62026;39.230;9.122;2023-04-25T00:53:24;9.57;;;1.33;;
67597;SDS011;62026;39.230;9.122;2023-04-25T00:55:52;9.77;;;1.20;;
67597;SDS011;62026;39.230;9.122;2023-04-25T00:58:20;8.23;;;0.93;;
67597;SDS011;62026;39.230;9.122;2023-04-25T01:00:48;4.88;;;0.90;;
67597;SDS011;62026;39.230;9.122;2023-04-25T01:03:19;4.32;;;0.88;;
67597;SDS011;62026;39.230;9.122;2023-04-25T01:05:46;4.05;;;1.02;;
67597;SDS011;62026;39.230;9.122;2023-04-25T01:08:13;9.57;;;1.23;;
67597;SDS011;62026;39.230;9.122;2023-04-25T01:10:40;7.45;;;1.23;;
67597;SDS011;62026;39.230;9.122;2023-04-25T01:13:07;5.03;;;1.00;;
67597;SDS011;62026;39.230;9.122;2023-04-25T01:15:33;7.20;;;1.25;;
67597;SDS011;62026;39.230;9.122;2023-04-25T01:18:00;6.85;;;1.17;;
67597;SDS011;62026;39.230;9.122;2023-04-25T01:20:27;8.00;;;1.10;;
67597;SDS011;62026;39.230;9.122;2023-04-25T01:22:55;7.38;;;1.35;;
67597;SDS011;62026;39.230;9.122;2023-04-25T01:25:22;4.95;;;0.98;;
67597;SDS011;62026;39.230;9.122;2023-04-25T01:27:49;8.15;;;1.10;;
67597;SDS011;62026;39.230;9.122;2023-04-25T01:30:15;8.77;;;1.13;;
67597;SDS011;62026;39.230;9.122;2023-04-25T01:32:41;7.38;;;1.00;;
67597;SDS011;62026;39.230;9.122;2023-04-25T01:35:09;5.22;;;1.40;;
67597;SDS011;62026;39.230;9.122;2023-04-25T01:37:37;4.88;;;1.10;;
67597;SDS011;62026;39.230;9.122;2023-04-25T01:40:10;7.55;;;1.08;;
67597;SDS011;62026;39.230;9.122;2023-04-25T01:42:38;6.85;;;1.30;;
67597;SDS011;62026;39.230;9.122;2023-04-25T01:45:07;6.50;;;1.38;;
67597;SDS011;62026;39.230;9.122;2023-04-25T01:47:36;5.00;;;0.90;;
67597;SDS011;62026;39.230;9.122;2023-04-25T01:50:05;7.72;;;1.23;;
67597;SDS011;62026;39.230;9.122;2023-04-25T01:52:33;4.07;;;0.98;;
67597;SDS011;62026;39.230;9.122;2023-04-25T01:55:03;7.65;;;1.00;;
67597;SDS011;62026;39.230;9.122;2023-04-25T01:57:33;7.22;;;1.25;;
67597;SDS011;62026;39.230;9.122;2023-04-25T02:00:01;5.88;;;0.98;;
67597;SDS011;62026;39.230;9.122;2023-04-25T02:02:37;11.60;;;1.10;;
67597;SDS011;62026;39.230;9.122;2023-04-25T02:05:06;9.38;;;1.85;;
67597;SDS011;62026;39.230;9.122;2023-04-25T02:07:36;4.13;;;1.33;;
67597;SDS011;62026;39.230;9.122;2023-04-25T02:10:03;4.65;;;0.77;;
67597;SDS011;62026;39.230;9.122;2023-04-25T02:12:33;11.05;;;1.10;;
67597;SDS011;62026;39.230;9.122;2023-04-25T02:15:01;3.88;;;1.10;;
67597;SDS011;62026;39.230;9.122;2023-04-25T02:17:40;6.50;;;1.13;;
67597;SDS011;62026;39.230;9.122;2023-04-25T02:20:07;7.10;;;1.10;;
67597;SDS011;62026;39.230;9.122;2023-04-25T02:22:33;6.90;;;1.13;;
67597;SDS011;62026;39.230;9.122;2023-04-25T02:25:00;6.28;;;1.25;;
67597;SDS011;62026;39.230;9.122;2023-04-25T02:27:27;4.20;;;0.95;;
67597;SDS011;62026;39.230;9.122;2023-04-25T02:29:55;4.57;;;1.10;;
67597;SDS011;62026;39.230;9.122;2023-04-25T02:32:21;5.18;;;0.80;;
67597;SDS011;62026;39.230;9.122;2023-04-25T02:34:47;6.65;;;1.00;;
67597;SDS011;62026;39.230;9.122;2023-04-25T02:37:13;3.60;;;0.82;;
67597;SDS011;62026;39.230;9.122;2023-04-25T02:39:39;4.63;;;0.93;;
67597;SDS011;62026;39.230;9.122;2023-04-25T02:42:05;4.97;;;1.17;;
67597;SDS011;62026;39.230;9.122;2023-04-25T02:44:31;3.78;;;0.70;;
67597;SDS011;62026;39.230;9.122;2023-04-25T02:46:57;7.40;;;1.40;;
67597;SDS011;62026;39.230;9.122;2023-04-25T02:49:23;5.40;;;1.02;;
67597;SDS011;62026;39.230;9.122;2023-04-25T02:51:51;5.57;;;1.10;;
67597;SDS011;62026;39.230;9.122;2023-04-25T02:54:17;4.68;;;1.13;;
67597;SDS011;62026;39.230;9.122;2023-04-25T02:56:46;4.10;;;0.82;;
67597;SDS011;62026;39.230;9.122;2023-04-25T02:59:17;4.47;;;0.90;;
67597;SDS011;62026;39.230;9.122;2023-04-25T03:01:43;2.72;;;0.82;;
67597;SDS011;62026;39.230;9.122;2023-04-25T03:04:10;5.68;;;0.98;;
67597;SDS011;62026;39.230;9.122;2023-04-25T03:06:36;9.02;;;1.15;;
67597;SDS011;62026;39.230;9.122;2023-04-25T03:09:02;3.83;;;1.05;;
67597;SDS011;62026;39.230;9.122;2023-04-25T03:11:29;7.68;;;1.20;;
67597;SDS011;62026;39.230;9.122;2023-04-25T03:13:55;5.15;;;1.17;;
67597;SDS011;62026;39.230;9.122;2023-04-25T03:16:21;7.03;;;1.20;;
67597;SDS011;62026;39.230;9.122;2023-04-25T03:18:49;7.05;;;1.65;;
67597;SDS011;62026;39.230;9.122;2023-04-25T03:21:17;6.15;;;1.23;;
67597;SDS011;62026;39.230;9.122;2023-04-25T03:23:43;4.00;;;0.90;;
67597;SDS011;62026;39.230;9.122;2023-04-25T03:26:09;6.90;;;1.30;;
67597;SDS011;62026;39.230;9.122;2023-04-25T03:28:35;3.17;;;0.70;;
67597;SDS011;62026;39.230;9.122;2023-04-25T03:31:01;4.22;;;0.80;;
67597;SDS011;62026;39.230;9.122;2023-04-25T03:33:27;4.93;;;0.90;;
67597;SDS011;62026;39.230;9.122;2023-04-25T03:35:53;3.30;;;0.90;;
67597;SDS011;62026;39.230;9.122;2023-04-25T03:38:19;3.22;;;0.80;;
67597;SDS011;62026;39.230;9.122;2023-04-25T03:40:45;4.28;;;1.00;;
67597;SDS011;62026;39.230;9.122;2023-04-25T03:43:31;6.47;;;1.42;;
67597;SDS011;62026;39.230;9.122;2023-04-25T03:46:02;5.57;;;1.20;;
67597;SDS011;62026;39.230;9.122;2023-04-25T03:48:28;7.60;;;0.90;;
67597;SDS011;62026;39.230;9.122;2023-04-25T03:50:54;6.68;;;1.20;;
67597;SDS011;62026;39.230;9.122;2023-04-25T03:53:21;6.60;;;1.33;;
67597;SDS011;62026;39.230;9.122;2023-04-25T03:56:22;6.50;;;1.45;;
67597;SDS011;62026;39.230;9.122;2023-04-25T03:58:59;8.75;;;1.38;;
67597;SDS011;62026;39.230;9.122;2023-04-25T04:01:27;7.93;;;1.35;;
67597;SDS011;62026;39.230;9.122;2023-04-25T04:03:53;9.05;;;1.52;;
67597;SDS011;62026;39.230;9.122;2023-04-25T04:06:19;7.00;;;1.27;;
67597;SDS011;62026;39.230;9.122;2023-04-25T04:08:49;3.95;;;1.27;;
67597;SDS011;62026;39.230;9.122;2023-04-25T04:11:15;10.80;;;1.95;;
67597;SDS011;62026;39.230;9.122;2023-04-25T04:13:41;8.05;;;1.33;;
67597;SDS011;62026;39.230;9.122;2023-04-25T04:16:07;7.03;;;1.50;;
67597;SDS011;62026;39.230;9.122;2023-04-25T04:18:34;6.85;;;1.23;;
67597;SDS011;62026;39.230;9.122;2023-04-25T04:21:00;11.25;;;1.50;;
67597;SDS011;62026;39.230;9.122;2023-04-25T04:23:29;5.05;;;1.10;;
67597;SDS011;62026;39.230;9.122;2023-04-25T04:25:56;5.90;;;1.00;;
67597;SDS011;62026;39.230;9.122;2023-04-25T04:28:22;7.20;;;0.90;;
67597;SDS011;62026;39.230;9.122;2023-04-25T04:31:11;7.40;;;1.55;;
67597;SDS011;62026;39.230;9.122;2023-04-25T04:33:38;5.40;;;1.20;;
67597;SDS011;62026;39.230;9.122;2023-04-25T04:36:04;4.35;;;1.50;;
67597;SDS011;62026;39.230;9.122;2023-04-25T04:38:32;5.15;;;1.23;;
67597;SDS011;62026;39.230;9.122;2023-04-25T04:41:01;7.82;;;1.48;;
67597;SDS011;62026;39.230;9.122;2023-04-25T04:43:39;8.70;;;1.25;;
67597;SDS011;62026;39.230;9.122;2023-04-25T04:46:28;6.65;;;1.15;;
67597;SDS011;62026;39.230;9.122;2023-04-25T04:49:18;7.28;;;1.33;;
67597;SDS011;62026;39.230;9.122;2023-04-25T04:52:02;5.40;;;1.05;;
67597;SDS011;62026;39.230;9.122;2023-04-25T04:54:35;6.70;;;1.10;;
67597;SDS011;62026;39.230;9.122;2023-04-25T04:57:14;6.53;;;1.05;;
67597;SDS011;62026;39.230;9.122;2023-04-25T05:00:11;6.05;;;1.00;;
67597;SDS011;62026;39.230;9.122;2023-04-25T05:02:54;3.30;;;1.05;;
67597;SDS011;62026;39.230;9.122;2023-04-25T05:05:40;4.20;;;1.10;;
67597;SDS011;62026;39.230;9.122;2023-04-25T05:08:28;5.45;;;1.02;;
67597;SDS011;62026;39.230;9.122;2023-04-25T05:11:24;5.85;;;1.27;;
67597;SDS011;62026;39.230;9.122;2023-04-25T05:14:13;6.18;;;1.13;;
67597;SDS011;62026;39.230;9.122;2023-04-25T05:17:03;8.43;;;1.30;;
67597;SDS011;62026;39.230;9.122;2023-04-25T05:19:38;6.45;;;1.10;;
67597;SDS011;62026;39.230;9.122;2023-04-25T05:22:37;11.73;;;1.23;;
67597;SDS011;62026;39.230;9.122;2023-04-25T05:25:23;6.35;;;1.20;;
67597;SDS011;62026;39.230;9.122;2023-04-25T05:28:08;8.43;;;1.63;;
67597;SDS011;62026;39.230;9.122;2023-04-25T05:31:00;6.60;;;1.77;;
67597;SDS011;62026;39.230;9.122;2023-04-25T05:33:29;7.07;;;1.58;;
67597;SDS011;62026;39.230;9.122;2023-04-25T05:35:55;7.38;;;1.60;;
67597;SDS011;62026;39.230;9.122;2023-04-25T05:38:22;5.47;;;1.05;;
67597;SDS011;62026;39.230;9.122;2023-04-25T05:41:04;8.90;;;1.13;;
67597;SDS011;62026;39.230;9.122;2023-04-25T05:44:02;5.47;;;0.77;;
67597;SDS011;62026;39.230;9.122;2023-04-25T05:46:48;5.30;;;0.90;;
67597;SDS011;62026;39.230;9.122;2023-04-25T05:49:14;4.10;;;1.10;;
67597;SDS011;62026;39.230;9.122;2023-04-25T05:52:07;7.30;;;1.52;;
67597;SDS011;62026;39.230;9.122;2023-04-25T05:54:57;5.95;;;1.95;;
67597;SDS011;62026;39.230;9.122;2023-04-25T05:57:23;8.05;;;1.95;;
67597;SDS011;62026;39.230;9.122;2023-04-25T05:59:52;6.72;;;1.50;;
67597;SDS011;62026;39.230;9.122;2023-04-25T06:02:19;7.43;;;1.95;;
67597;SDS011;62026;39.230;9.122;2023-04-25T06:04:50;11.25;;;2.97;;
67597;SDS011;62026;39.230;9.122;2023-04-25T06:07:17;9.18;;;2.42;;
67597;SDS011;62026;39.230;9.122;2023-04-25T06:09:44;11.68;;;2.80;;
67597;SDS011;62026;39.230;9.122;2023-04-25T06:12:11;10.90;;;2.60;;
67597;SDS011;62026;39.230;9.122;2023-04-25T06:14:37;10.30;;;3.03;;
67597;SDS011;62026;39.230;9.122;2023-04-25T06:17:03;6.90;;;2.33;;
67597;SDS011;62026;39.230;9.122;2023-04-25T06:19:34;6.90;;;2.47;;
67597;SDS011;62026;39.230;9.122;2023-04-25T06:22:01;6.70;;;1.92;;
67597;SDS011;62026;39.230;9.122;2023-04-25T06:24:27;10.60;;;2.30;;
67597;SDS011;62026;39.230;9.122;2023-04-25T06:26:54;6.22;;;1.90;;
67597;SDS011;62026;39.230;9.122;2023-04-25T06:29:20;5.80;;;1.73;;
67597;SDS011;62026;39.230;9.122;2023-04-25T06:31:46;2.88;;;1.08;;
67597;SDS011;62026;39.230;9.122;2023-04-25T06:34:12;13.23;;;2.03;;
67597;SDS011;62026;39.230;9.122;2023-04-25T06:36:40;8.95;;;2.17;;
67597;SDS011;62026;39.230;9.122;2023-04-25T06:39:08;7.78;;;2.33;;
67597;SDS011;62026;39.230;9.122;2023-04-25T06:41:34;8.65;;;2.58;;
67597;SDS011;62026;39.230;9.122;2023-04-25T06:44:05;8.38;;;2.38;;
67597;SDS011;62026;39.230;9.122;2023-04-25T06:46:49;6.55;;;1.55;;
67597;SDS011;62026;39.230;9.122;2023-04-25T06:49:15;9.73;;;1.85;;
67597;SDS011;62026;39.230;9.122;2023-04-25T06:51:41;8.13;;;1.40;;
67597;SDS011;62026;39.230;9.122;2023-04-25T06:54:07;7.35;;;1.52;;
67597;SDS011;62026;39.230;9.122;2023-04-25T06:56:40;4.47;;;1.00;;
67597;SDS011;62026;39.230;9.122;2023-04-25T06:59:13;4.63;;;1.15;;
67597;SDS011;62026;39.230;9.122;2023-04-25T07:01:41;4.88;;;1.00;;
67597;SDS011;62026;39.230;9.122;2023-04-25T07:04:14;7.00;;;0.95;;
67597;SDS011;62026;39.230;9.122;2023-04-25T07:06:45;6.15;;;1.10;;
67597;SDS011;62026;39.230;9.122;2023-04-25T07:09:15;2.67;;;0.75;;
67597;SDS011;62026;39.230;9.122;2023-04-25T07:11:45;5.38;;;1.00;;
67597;SDS011;62026;39.230;9.122;2023-04-25T07:14:11;2.85;;;0.80;;
67597;SDS011;62026;39.230;9.122;2023-04-25T07:16:37;4.70;;;0.80;;
67597;SDS011;62026;39.230;9.122;2023-04-25T07:19:03;7.72;;;1.27;;
67597;SDS011;62026;39.230;9.122;2023-04-25T07:21:29;2.63;;;0.70;;
67597;SDS011;62026;39.230;9.122;2023-04-25T07:23:57;3.10;;;0.80;;
67597;SDS011;62026;39.230;9.122;2023-04-25T07:29:13;6.90;;;0.80;;
67597;SDS011;62026;39.230;9.122;2023-04-25T07:31:39;4.70;;;1.00;;
67597;SDS011;62026;39.230;9.122;2023-04-25T07:34:05;3.30;;;1.00;;
67597;SDS011;62026;39.230;9.122;2023-04-25T07:36:31;6.15;;;0.80;;
67597;SDS011;62026;39.230;9.122;2023-04-25T07:38:57;3.58;;;0.80;;
67597;SDS011;62026;39.230;9.122;2023-04-25T07:41:23;3.75;;;0.80;;
67597;SDS011;62026;39.230;9.122;2023-04-25T07:43:49;8.68;;;1.55;;
67597;SDS011;62026;39.230;9.122;2023-04-25T07:46:16;2.33;;;1.10;;
67597;SDS011;62026;39.230;9.122;2023-04-25T07:48:42;4.53;;;0.90;;
67597;SDS011;62026;39.230;9.122;2023-04-25T07:51:08;6.03;;;1.10;;
67597;SDS011;62026;39.230;9.122;2023-04-25T07:53:35;10.07;;;1.48;;
67597;SDS011;62026;39.230;9.122;2023-04-25T07:56:06;6.07;;;1.33;;
67597;SDS011;62026;39.230;9.122;2023-04-25T07:58:36;5.57;;;1.00;;
67597;SDS011;62026;39.230;9.122;2023-04-25T08:01:04;2.83;;;1.13;;
67597;SDS011;62026;39.230;9.122;2023-04-25T08:03:48;1.92;;;0.60;;
67597;SDS011;62026;39.230;9.122;2023-04-25T08:06:21;2.25;;;0.70;;
67597;SDS011;62026;39.230;9.122;2023-04-25T08:09:01;3.28;;;0.70;;
67597;SDS011;62026;39.230;9.122;2023-04-25T08:11:33;2.17;;;0.95;;
67597;SDS011;62026;39.230;9.122;2023-04-25T08:14:00;4.28;;;1.10;;
67597;SDS011;62026;39.230;9.122;2023-04-25T08:16:27;2.75;;;1.25;;
67597;SDS011;62026;39.230;9.122;2023-04-25T08:18:54;3.63;;;0.77;;
67597;SDS011;62026;39.230;9.122;2023-04-25T08:21:20;2.65;;;0.80;;
67597;SDS011;62026;39.230;9.122;2023-04-25T08:23:46;2.67;;;0.70;;
67597;SDS011;62026;39.230;9.122;2023-04-25T08:26:20;2.83;;;1.10;;
67597;SDS011;62026;39.230;9.122;2023-04-25T08:28:49;2.20;;;0.88;;
67597;SDS011;62026;39.230;9.122;2023-04-25T08:31:16;5.15;;;1.05;;
67597;SDS011;62026;39.230;9.122;2023-04-25T08:33:53;2.25;;;0.73;;
67597;SDS011;62026;39.230;9.122;2023-04-25T08:36:26;2.80;;;0.77;;
67597;SDS011;62026;39.230;9.122;2023-04-25T08:38:53;5.00;;;1.10;;
67597;SDS011;62026;39.230;9.122;2023-04-25T08:41:20;3.17;;;1.25;;
67597;SDS011;62026;39.230;9.122;2023-04-25T08:43:48;3.65;;;1.00;;
67597;SDS011;62026;39.230;9.122;2023-04-25T08:46:17;5.18;;;1.52;;
67597;SDS011;62026;39.230;9.122;2023-04-25T08:49:10;2.28;;;1.10;;
67597;SDS011;62026;39.230;9.122;2023-04-25T08:51:41;3.35;;;1.10;;
67597;SDS011;62026;39.230;9.122;2023-04-25T08:54:19;2.67;;;1.00;;
67597;SDS011;62026;39.230;9.122;2023-04-25T08:56:51;3.00;;;1.30;;
67597;SDS011;62026;39.230;9.122;2023-04-25T08:59:17;4.80;;;1.25;;
67597;SDS011;62026;39.230;9.122;2023-04-25T09:01:45;3.72;;;0.98;;
67597;SDS011;62026;39.230;9.122;2023-04-25T09:04:12;3.85;;;1.20;;
67597;SDS011;62026;39.230;9.122;2023-04-25T09:06:40;3.90;;;1.30;;
67597;SDS011;62026;39.230;9.122;2023-04-25T09:09:07;3.33;;;1.20;;
67597;SDS011;62026;39.230;9.122;2023-04-25T09:11:35;4.05;;;0.98;;
67597;SDS011;62026;39.230;9.122;2023-04-25T09:14:10;2.88;;;1.00;;
67597;SDS011;62026;39.230;9.122;2023-04-25T09:20:05;4.15;;;1.05;;
67597;SDS011;62026;39.230;9.122;2023-04-25T09:22:37;5.60;;;0.82;;
67597;SDS011;62026;39.230;9.122;2023-04-25T09:25:13;3.78;;;0.95;;
67597;SDS011;62026;39.230;9.122;2023-04-25T09:27:50;3.53;;;0.70;;
67597;SDS011;62026;39.230;9.122;2023-04-25T09:30:30;2.05;;;0.60;;
67597;SDS011;62026;39.230;9.122;2023-04-25T09:33:10;1.88;;;0.70;;
67597;SDS011;62026;39.230;9.122;2023-04-25T09:35:42;2.05;;;0.95;;
67597;SDS011;62026;39.230;9.122;2023-04-25T09:38:22;3.28;;;0.90;;
67597;SDS011;62026;39.230;9.122;2023-04-25T09:40:53;2.92;;;0.85;;
67597;SDS011;62026;39.230;9.122;2023-04-25T09:43:40;3.85;;;0.80;;
67597;SDS011;62026;39.230;9.122;2023-04-25T09:46:12;1.87;;;0.60;;
67597;SDS011;62026;39.230;9.122;2023-04-25T09:48:49;3.72;;;0.68;;
67597;SDS011;62026;39.230;9.122;2023-04-25T09:51:24;3.63;;;0.80;;
67597;SDS011;62026;39.230;9.122;2023-04-25T09:53:52;2.42;;;1.00;;
67597;SDS011;62026;39.230;9.122;2023-04-25T09:56:48;2.97;;;1.00;;
67597;SDS011;62026;39.230;9.122;2023-04-25T09:59:20;3.58;;;1.42;;
67597;SDS011;62026;39.230;9.122;2023-04-25T10:01:48;4.30;;;1.40;;
67597;SDS011;62026;39.230;9.122;2023-04-25T10:04:26;2.90;;;1.15;;
67597;SDS011;62026;39.230;9.122;2023-04-25T10:07:16;4.68;;;1.10;;
67597;SDS011;62026;39.230;9.122;2023-04-25T10:09:47;5.35;;;1.27;;
67597;SDS011;62026;39.230;9.122;2023-04-25T10:12:17;4.95;;;1.15;;
67597;SDS011;62026;39.230;9.122;2023-04-25T10:14:43;3.00;;;1.00;;
67597;SDS011;62026;39.230;9.122;2023-04-25T10:17:11;2.40;;;1.00;;
67597;SDS011;62026;39.230;9.122;2023-04-25T10:19:38;7.15;;;1.20;;
67597;SDS011;62026;39.230;9.122;2023-04-25T10:22:07;2.92;;;0.95;;
67597;SDS011;62026;39.230;9.122;2023-04-25T10:24:39;3.58;;;1.02;;
67597;SDS011;62026;39.230;9.122;2023-04-25T10:27:06;4.88;;;1.25;;
67597;SDS011;62026;39.230;9.122;2023-04-25T10:29:33;6.15;;;1.10;;
67597;SDS011;62026;39.230;9.122;2023-04-25T10:32:00;8.20;;;1.50;;
67597;SDS011;62026;39.230;9.122;2023-04-25T10:34:45;2.63;;;1.08;;
67597;SDS011;62026;39.230;9.122;2023-04-25T10:37:14;5.68;;;1.33;;
67597;SDS011;62026;39.230;9.122;2023-04-25T10:39:40;5.18;;;1.02;;
67597;SDS011;62026;39.230;9.122;2023-04-25T10:42:08;4.78;;;1.05;;
67597;SDS011;62026;39.230;9.122;2023-04-25T10:44:34;3.65;;;0.80;;
67597;SDS011;62026;39.230;9.122;2023-04-25T10:47:06;2.80;;;0.80;;
67597;SDS011;62026;39.230;9.122;2023-04-25T10:49:35;3.78;;;1.10;;
67597;SDS011;62026;39.230;9.122;2023-04-25T10:54:45;3.83;;;1.00;;
67597;SDS011;62026;39.230;9.122;2023-04-25T10:57:31;2.55;;;0.70;;
67597;SDS011;62026;39.230;9.122;2023-04-25T11:00:16;3.13;;;0.82;;
67597;SDS011;62026;39.230;9.122;2023-04-25T11:02:46;2.65;;;0.63;;
67597;SDS011;62026;39.230;9.122;2023-04-25T11:05:19;1.02;;;0.50;;
67597;SDS011;62026;39.230;9.122;2023-04-25T11:07:55;2.97;;;0.88;;
67597;SDS011;62026;39.230;9.122;2023-04-25T11:10:26;4.80;;;0.63;;
67597;SDS011;62026;39.230;9.122;2023-04-25T11:12:54;5.85;;;0.70;;
67597;SDS011;62026;39.230;9.122;2023-04-25T11:15:21;5.28;;;0.82;;
67597;SDS011;62026;39.230;9.122;2023-04-25T11:17:48;3.33;;;0.73;;
67597;SDS011;62026;39.230;9.122;2023-04-25T11:20:16;3.20;;;0.70;;
67597;SDS011;62026;39.230;9.122;2023-04-25T11:22:44;1.70;;;0.63;;
67597;SDS011;62026;39.230;9.122;2023-04-25T11:25:12;0.90;;;0.65;;
67597;SDS011;62026;39.230;9.122;2023-04-25T11:27:53;3.97;;;1.00;;
67597;SDS011;62026;39.230;9.122;2023-04-25T11:30:22;4.72;;;1.00;;
67597;SDS011;62026;39.230;9.122;2023-04-25T11:32:50;2.63;;;0.77;;
67597;SDS011;62026;39.230;9.122;2023-04-25T11:35:17;2.88;;;0.80;;
67597;SDS011;62026;39.230;9.122;2023-04-25T11:37:48;3.22;;;0.90;;
67597;SDS011;62026;39.230;9.122;2023-04-25T11:40:15;2.35;;;0.90;;
67597;SDS011;62026;39.230;9.122;2023-04-25T11:42:44;3.67;;;0.95;;
67597;SDS011;62026;39.230;9.122;2023-04-25T11:45:12;3.63;;;1.30;;
67597;SDS011;62026;39.230;9.122;2023-04-25T11:47:39;3.17;;;1.00;;
67597;SDS011;62026;39.230;9.122;2023-04-25T11:50:06;1.73;;;0.70;;
67597;SDS011;62026;39.230;9.122;2023-04-25T11:52:40;4.18;;;1.00;;
67597;SDS011;62026;39.230;9.122;2023-04-25T11:57:39;4.20;;;1.13;;
67597;SDS011;62026;39.230;9.122;2023-04-25T12:00:13;1.90;;;0.80;;
67597;SDS011;62026;39.230;9.122;2023-04-25T12:02:43;2.88;;;0.88;;
67597;SDS011;62026;39.230;9.122;2023-04-25T12:05:23;2.55;;;0.90;;
67597;SDS011;62026;39.230;9.122;2023-04-25T12:07:53;3.45;;;0.90;;
67597;SDS011;62026;39.230;9.122;2023-04-25T12:10:19;3.33;;;0.85;;
67597;SDS011;62026;39.230;9.122;2023-04-25T12:12:46;3.65;;;1.10;;
67597;SDS011;62026;39.230;9.122;2023-04-25T12:15:17;6.03;;;1.00;;
67597;SDS011;62026;39.230;9.122;2023-04-25T12:17:51;2.53;;;0.60;;
67597;SDS011;62026;39.230;9.122;2023-04-25T12:20:20;3.88;;;0.90;;
67597;SDS011;62026;39.230;9.122;2023-04-25T12:22:50;3.72;;;0.90;;
67597;SDS011;62026;39.230;9.122;2023-04-25T12:25:33;2.15;;;0.80;;
67597;SDS011;62026;39.230;9.122;2023-04-25T12:28:17;4.28;;;0.73;;
67597;SDS011;62026;39.230;9.122;2023-04-25T12:36:05;3.42;;;0.88;;
67597;SDS011;62026;39.230;9.122;2023-04-25T12:38:37;3.90;;;0.95;;
67597;SDS011;62026;39.230;9.122;2023-04-25T12:41:05;2.58;;;0.90;;
67597;SDS011;62026;39.230;9.122;2023-04-25T12:43:32;10.23;;;1.15;;
67597;SDS011;62026;39.230;9.122;2023-04-25T12:45:59;3.72;;;1.10;;
67597;SDS011;62026;39.230;9.122;2023-04-25T12:48:25;5.07;;;0.80;;
67597;SDS011;62026;39.230;9.122;2023-04-25T12:50:51;3.55;;;0.75;;
67597;SDS011;62026;39.230;9.122;2023-04-25T12:53:22;4.10;;;0.98;;
67597;SDS011;62026;39.230;9.122;2023-04-25T12:55:51;3.95;;;1.25;;
67597;SDS011;62026;39.230;9.122;2023-04-25T12:58:18;7.55;;;1.00;;
67597;SDS011;62026;39.230;9.122;2023-04-25T13:00:45;2.88;;;0.80;;
67597;SDS011;62026;39.230;9.122;2023-04-25T13:03:11;5.72;;;0.90;;
67597;SDS011;62026;39.230;9.122;2023-04-25T13:05:38;3.97;;;0.77;;
67597;SDS011;62026;39.230;9.122;2023-04-25T13:08:04;3.03;;;0.70;;
67597;SDS011;62026;39.230;9.122;2023-04-25T13:10:30;2.95;;;0.95;;
67597;SDS011;62026;39.230;9.122;2023-04-25T13:12:58;3.50;;;0.82;;
67597;SDS011;62026;39.230;9.122;2023-04-25T13:15:26;3.75;;;0.90;;
67597;SDS011;62026;39.230;9.122;2023-04-25T13:17:52;2.45;;;0.88;;
67597;SDS011;62026;39.230;9.122;2023-04-25T13:20:18;1.67;;;0.70;;
67597;SDS011;62026;39.230;9.122;2023-04-25T13:22:47;1.75;;;0.52;;
67597;SDS011;62026;39.230;9.122;2023-04-25T13:25:13;3.00;;;0.60;;
67597;SDS011;62026;39.230;9.122;2023-04-25T13:27:39;4.68;;;1.08;;
67597;SDS011;62026;39.230;9.122;2023-04-25T13:30:06;1.25;;;0.47;;
67597;SDS011;62026;39.230;9.122;2023-04-25T13:32:33;2.63;;;0.70;;
67597;SDS011;62026;39.230;9.122;2023-04-25T13:35:03;2.15;;;0.70;;
67597;SDS011;62026;39.230;9.122;2023-04-25T13:37:32;1.25;;;0.55;;
67597;SDS011;62026;39.230;9.122;2023-04-25T13:39:59;0.98;;;0.70;;
67597;SDS011;62026;39.230;9.122;2023-04-25T13:42:29;3.10;;;0.60;;
67597;SDS011;62026;39.230;9.122;2023-04-25T13:44:56;2.42;;;0.63;;
67597;SDS011;62026;39.230;9.122;2023-04-25T13:47:22;2.45;;;0.60;;
67597;SDS011;62026;39.230;9.122;2023-04-25T13:49:49;2.22;;;0.65;;
67597;SDS011;62026;39.230;9.122;2023-04-25T13:52:15;1.67;;;0.70;;
67597;SDS011;62026;39.230;9.122;2023-04-25T13:54:42;1.98;;;0.60;;
67597;SDS011;62026;39.230;9.122;2023-04-25T13:57:07;3.28;;;0.68;;
67597;SDS011;62026;39.230;9.122;2023-04-25T13:59:34;2.65;;;0.50;;
67597;SDS011;62026;39.230;9.122;2023-04-25T14:02:00;1.75;;;0.50;;
67597;SDS011;62026;39.230;9.122;2023-04-25T14:04:26;3.17;;;0.65;;
67597;SDS011;62026;39.230;9.122;2023-04-25T14:06:52;1.52;;;0.50;;
67597;SDS011;62026;39.230;9.122;2023-04-25T14:09:19;1.35;;;0.57;;
67597;SDS011;62026;39.230;9.122;2023-04-25T14:11:51;1.50;;;0.57;;
67597;SDS011;62026;39.230;9.122;2023-04-25T14:14:18;5.07;;;1.00;;
67597;SDS011;62026;39.230;9.122;2023-04-25T14:16:47;1.70;;;0.50;;
67597;SDS011;62026;39.230;9.122;2023-04-25T14:19:15;5.57;;;0.60;;
67597;SDS011;62026;39.230;9.122;2023-04-25T14:21:45;7.32;;;0.80;;
67597;SDS011;62026;39.230;9.122;2023-04-25T14:24:11;1.63;;;0.70;;
67597;SDS011;62026;39.230;9.122;2023-04-25T14:26:39;2.53;;;0.68;;
67597;SDS011;62026;39.230;9.122;2023-04-25T14:29:06;5.35;;;0.65;;
67597;SDS011;62026;39.230;9.122;2023-04-25T14:31:34;1.50;;;0.60;;
67597;SDS011;62026;39.230;9.122;2023-04-25T14:34:00;2.97;;;0.75;;
67597;SDS011;62026;39.230;9.122;2023-04-25T14:36:30;3.28;;;0.75;;
67597;SDS011;62026;39.230;9.122;2023-04-25T14:38:57;2.13;;;0.75;;
67597;SDS011;62026;39.230;9.122;2023-04-25T14:41:24;2.83;;;0.90;;
67597;SDS011;62026;39.230;9.122;2023-04-25T14:43:51;3.88;;;0.70;;
67597;SDS011;62026;39.230;9.122;2023-04-25T14:46:18;4.95;;;0.60;;
67597;SDS011;62026;39.230;9.122;2023-04-25T14:48:45;2.40;;;0.63;;
67597;SDS011;62026;39.230;9.122;2023-04-25T14:51:12;4.32;;;1.50;;
67597;SDS011;62026;39.230;9.122;2023-04-25T14:53:39;4.53;;;0.80;;
67597;SDS011;62026;39.230;9.122;2023-04-25T14:56:07;4.10;;;0.90;;
67597;SDS011;62026;39.230;9.122;2023-04-25T14:58:34;2.10;;;0.77;;
67597;SDS011;62026;39.230;9.122;2023-04-25T15:01:00;1.42;;;0.60;;
67597;SDS011;62026;39.230;9.122;2023-04-25T15:03:26;1.88;;;0.50;;
67597;SDS011;62026;39.230;9.122;2023-04-25T15:05:54;1.30;;;0.70;;
67597;SDS011;62026;39.230;9.122;2023-04-25T15:08:21;2.33;;;0.55;;
67597;SDS011;62026;39.230;9.122;2023-04-25T15:10:47;4.13;;;0.70;;
67597;SDS011;62026;39.230;9.122;2023-04-25T15:13:13;3.95;;;0.70;;
67597;SDS011;62026;39.230;9.122;2023-04-25T15:15:40;2.70;;;0.60;;
67597;SDS011;62026;39.230;9.122;2023-04-25T15:18:06;2.70;;;0.55;;
67597;SDS011;62026;39.230;9.122;2023-04-25T15:20:32;2.28;;;0.63;;
67597;SDS011;62026;39.230;9.122;2023-04-25T15:22:59;1.25;;;0.65;;